Time;durP1;ratioP1;P1;durP2;ratioP2;P2;SDS_P1;SDS_P2;PMS_P1;PMS_P2;Temp;Humidity;BMP_temperature;BMP_pressure;BME280_temperature;BME280_humidity;BME280_pressure;Samples;Min_cycle;Max_cycle;Signal;HPM_P1;HPM_P2
2021/11/12 00:14:35;;;;;;;2.08;1.55;;;;;;;13.56;53.04;102557.74;1678507;84;21126;-55
2021/11/12 00:17:08;;;;;;;2.05;1.42;;;;;;;13.53;53.19;102552.52;1679914;84;20995;-55
2021/11/12 00:19:30;;;;;;;2.50;1.65;;;;;;;13.53;53.16;102547.28;1674419;84;21072;-57
2021/11/12 00:21:57;;;;;;;1.77;1.52;;;;;;;13.50;53.18;102544.67;1682841;85;21061;-55
2021/11/12 00:24:23;;;;;;;1.60;1.50;;;;;;;13.50;53.24;102542.05;1683032;84;21002;-55
2021/11/12 00:26:50;;;;;;;3.62;1.80;;;;;;;13.52;53.29;102537.25;1683132;84;21545;-55
2021/11/12 00:29:16;;;;;;;2.60;1.47;;;;;;;13.52;53.49;102542.91;1684109;84;21570;-52
2021/11/12 00:37:14;;;;;;;1.80;1.35;;;;;;;13.56;53.69;102532.44;1711705;83;21030;-56
2021/11/12 00:39:41;;;;;;;2.27;1.75;;;;;;;13.56;53.87;102531.59;1712007;83;21049;-53
2021/11/12 00:42:13;;;;;;;1.60;1.37;;;;;;;13.54;53.96;102523.73;1711794;83;21054;-54
2021/11/12 00:47:07;;;;;;;1.65;1.40;;;;;;;13.55;54.18;102511.53;1711751;83;21078;-55
2021/11/12 00:49:36;;;;;;;2.42;1.52;;;;;;;13.56;54.25;102511.97;1711886;83;21005;-56
2021/11/12 00:52:08;;;;;;;1.60;1.50;;;;;;;13.56;54.28;102513.28;1708302;83;21074;-58
2021/11/12 00:54:32;;;;;;;;;;;;;;;13.56;54.39;102505.44;1711087;83;21085;-55
2021/11/12 00:56:59;;;;;;;3.02;1.70;;;;;;;13.58;54.58;102512.83;1711709;83;20133;-55
2021/11/12 00:59:25;;;;;;;1.70;1.60;;;;;;;13.46;54.98;102507.64;1714383;83;20998;-53
2021/11/12 01:01:53;;;;;;;2.70;1.82;;;;;;;13.45;55.09;102502.88;1717631;83;21130;-55
2021/11/12 01:04:21;;;;;;;1.70;1.50;;;;;;;13.46;55.13;102501.11;1718780;83;20979;-56
2021/11/12 01:06:48;;;;;;;4.22;1.92;;;;;;;13.46;55.15;102493.27;1718908;83;21485;-56
2021/11/12 01:09:18;;;;;;;3.15;1.70;;;;;;;13.47;55.02;102495.02;1718482;83;21014;-53
2021/11/12 01:11:46;;;;;;;2.85;1.82;;;;;;;13.47;55.00;102495.02;1734420;82;21006;-56
2021/11/12 01:14:16;;;;;;;2.00;1.52;;;;;;;13.46;54.97;102493.27;1739252;81;20979;-55
2021/11/12 01:16:43;;;;;;;1.65;1.52;;;;;;;13.44;55.02;102495.02;1739248;81;21019;-55
2021/11/12 01:19:10;;;;;;;2.42;1.50;;;;;;;13.45;55.05;102498.08;1736964;81;20939;-55
2021/11/12 01:21:38;;;;;;;2.80;1.60;;;;;;;13.45;55.06;102488.92;1733336;81;21007;-56
2021/11/12 01:24:05;;;;;;;3.25;1.80;;;;;;;13.43;55.01;102491.56;1738693;81;21465;-55
2021/11/12 01:26:32;;;;;;;1.87;1.70;;;;;;;13.43;55.02;102488.06;1734887;81;21491;-55
2021/11/12 01:28:59;;;;;;;2.10;1.70;;;;;;;13.43;55.09;102490.69;1737825;80;21480;-53
2021/11/12 01:31:28;;;;;;;1.50;1.40;;;;;;;13.43;55.08;102482.84;1736589;81;21507;-53
2021/11/12 01:33:57;;;;;;;2.05;1.77;;;;;;;13.42;55.17;102478.47;1741442;80;21480;-55
2021/11/12 01:38:56;;;;;;;2.47;1.50;;;;;;;13.42;55.28;102475.86;1700265;84;21041;-55
2021/11/12 01:41:22;;;;;;;2.52;1.77;;;;;;;13.42;55.42;102478.47;1698811;84;21510;-55
2021/11/12 01:43:56;;;;;;;2.17;1.40;;;;;;;13.42;55.52;102488.93;1700352;84;21491;-55
2021/11/12 01:49:10;;;;;;;15.68;2.65;;;;;;;13.42;55.54;102486.31;1641141;87;21150;-53
2021/11/12 02:01:38;;;;;;;1.90;1.50;;;;;;;13.43;55.79;102474.99;1623227;87;21616;-55
2021/11/12 02:04:10;;;;;;;2.58;1.70;;;;;;;13.43;55.92;102469.77;1614835;88;21053;-56
2021/11/12 02:06:38;;;;;;;2.45;1.90;;;;;;;13.43;55.89;102481.10;1622156;88;21070;-55
2021/11/12 02:09:21;;;;;;;1.98;1.55;;;;;;;13.42;56.12;102477.16;1627880;87;20998;-60
2021/11/12 02:11:54;;;;;;;3.17;1.82;;;;;;;13.42;56.26;102475.86;1625800;87;21546;-56
2021/11/12 02:14:22;;;;;;;2.42;1.60;;;;;;;13.44;56.45;102471.48;1616007;88;21093;-56
2021/11/12 02:17:12;;;;;;;2.55;2.25;;;;;;;13.45;56.45;102479.77;1618797;88;21105;-55
2021/11/12 02:19:37;;;;;;;2.58;1.42;;;;;;;13.46;56.60;102478.45;1615530;88;21077;-53
2021/11/12 02:22:11;;;;;;;1.95;1.77;;;;;;;13.49;56.75;102478.88;1618068;88;21080;-53
2021/11/12 02:24:43;;;;;;;1.90;1.50;;;;;;;13.50;56.79;102479.29;1607602;88;21100;-55
2021/11/12 02:27:11;;;;;;;4.62;1.82;;;;;;;13.51;56.88;102477.12;1624502;86;21109;-55
2021/11/12 02:29:40;;;;;;;2.77;1.77;;;;;;;13.55;56.88;102480.14;1641212;86;21541;-52
2021/11/12 02:32:17;;;;;;;3.58;1.65;;;;;;;13.57;56.92;102476.65;1638658;87;21060;-54
2021/11/12 02:34:47;;;;;;;4.20;1.57;;;;;;;13.60;56.99;102478.38;1641720;86;21574;-55
2021/11/12 02:37:14;;;;;;;3.27;1.50;;;;;;;13.62;56.86;102476.16;1676425;84;21082;-55
2021/11/12 02:39:41;;;;;;;2.92;1.75;;;;;;;13.64;56.91;102474.86;1689459;84;21075;-52
2021/11/12 02:42:07;;;;;;;3.47;1.62;;;;;;;13.66;56.87;102476.56;1688472;84;21013;-58
2021/11/12 02:44:35;;;;;;;2.67;1.90;;;;;;;13.69;56.90;102478.30;1675607;85;21050;-56
2021/11/12 02:47:03;;;;;;;1.95;1.57;;;;;;;13.72;56.75;102473.90;1674945;85;21006;-55
2021/11/12 02:49:31;;;;;;;4.50;1.50;;;;;;;13.76;56.78;102469.53;1640718;87;21577;-57
2021/11/12 02:51:58;;;;;;;2.35;1.47;;;;;;;13.77;56.83;102469.95;1676979;85;21022;-57
2021/11/12 02:54:25;;;;;;;2.17;1.57;;;;;;;13.80;56.77;102472.55;1652775;86;21145;-55
2021/11/12 02:56:57;;;;;;;2.87;1.62;;;;;;;13.83;56.73;102471.20;1674831;85;21097;-55
2021/11/12 02:59:21;;;;;;;1.72;1.50;;;;;;;13.83;56.70;102472.08;1643244;86;21094;-60
2021/11/12 03:01:48;;;;;;;4.30;2.05;;;;;;;13.85;56.60;102471.63;1670032;85;21077;-56
2021/11/12 03:04:18;;;;;;;3.62;1.60;;;;;;;13.86;56.56;102460.73;1637645;87;21070;-55
2021/11/12 03:06:44;;;;;;;2.50;1.62;;;;;;;13.86;56.48;102461.61;1621449;87;21028;-55
2021/11/12 03:09:11;;;;;;;4.20;1.50;;;;;;;13.86;56.41;102460.30;1621181;87;21063;-57
2021/11/12 03:11:41;;;;;;;4.25;1.77;;;;;;;13.85;56.47;102453.74;1671829;83;21036;-54
2021/11/12 03:14:10;;;;;;;2.87;1.62;;;;;;;13.85;56.48;102453.74;1732508;81;21063;-55
2021/11/12 03:16:38;;;;;;;2.83;1.80;;;;;;;13.85;56.59;102445.89;1734162;81;21078;-55
2021/11/12 03:19:07;;;;;;;1.72;1.55;;;;;;;13.88;56.66;102448.50;1734347;81;20979;-55
2021/11/12 03:21:34;;;;;;;3.02;1.65;;;;;;;13.88;56.68;102438.03;1734656;81;21507;-55
2021/11/12 03:24:14;;;;;;;3.42;1.70;;;;;;;13.89;56.79;102442.37;1734258;81;21582;-55
2021/11/12 03:29:29;;;;;;;3.58;1.77;;;;;;;13.90;56.77;102446.73;1680437;85;21586;-56
2021/11/12 04:17:46;;;;;;;5.37;2.98;;;;;;;13.73;56.23;102453.84;1625325;86;21077;-56
2021/11/12 05:55:06;;;;;;;4.58;3.42;;;;;;;13.74;57.26;102518.39;1681806;85;21626;-53
2021/11/12 05:57:32;;;;;;;7.67;3.40;;;;;;;13.77;57.21;102521.84;1682901;85;21046;-57
2021/11/12 05:59:58;;;;;;;4.25;3.60;;;;;;;13.81;57.22;102517.45;1685918;85;21075;-56
2021/11/12 06:02:24;;;;;;;4.50;3.37;;;;;;;13.84;57.12;102525.29;1685985;85;21022;-56
2021/11/12 06:04:51;;;;;;;9.18;3.70;;;;;;;13.88;57.07;102524.39;1686024;85;21010;-55
2021/11/12 06:07:18;;;;;;;3.52;3.22;;;;;;;13.91;57.02;102525.66;1686003;85;21046;-55
2021/11/12 06:09:45;;;;;;;4.95;3.40;;;;;;;13.95;57.07;102519.52;1686123;85;21003;-56
2021/11/12 06:12:12;;;;;;;4.80;3.80;;;;;;;14.00;56.94;102526.91;1685785;85;21079;-56
2021/11/12 06:14:41;;;;;;;7.72;3.58;;;;;;;14.04;56.77;102519.89;1685688;85;21076;-55
2021/11/12 06:17:07;;;;;;;5.37;3.25;;;;;;;14.07;56.50;102516.83;1681887;85;21040;-59
2021/11/12 06:19:34;;;;;;;5.00;3.37;;;;;;;14.11;56.30;102516.35;1685738;85;21098;-56
2021/11/12 06:22:02;;;;;;;7.35;3.35;;;;;;;14.13;56.00;102527.25;1685781;85;21068;-55
2021/11/12 06:24:29;;;;;;;3.33;2.98;;;;;;;14.14;55.89;102514.56;1679926;85;21193;-56
2021/11/12 06:26:56;;;;;;;5.45;3.60;;;;;;;14.16;55.67;102515.42;1685925;85;21005;-55
2021/11/12 06:29:23;;;;;;;6.30;3.62;;;;;;;14.17;55.60;102515.87;1686166;85;21044;-54
2021/11/12 06:31:49;;;;;;;4.42;2.90;;;;;;;14.18;55.49;102511.05;1685727;85;21098;-56
2021/11/12 06:34:16;;;;;;;6.55;3.30;;;;;;;14.20;55.46;102507.13;1686061;85;21079;-56
2021/11/12 06:36:42;;;;;;;5.45;3.55;;;;;;;14.22;55.37;102507.52;1685991;85;21004;-55
2021/11/12 06:39:09;;;;;;;6.22;4.10;;;;;;;14.24;55.43;102507.52;1686021;85;21002;-52
2021/11/12 06:49:30;;;;;;;3.22;2.70;;;;;;;14.38;55.05;102498.69;1727855;81;21082;-55
2021/11/12 06:51:53;;;;;;;3.40;2.50;;;;;;;14.46;55.02;102498.61;1726606;82;20999;-55
2021/11/12 06:54:19;;;;;;;3.25;2.20;;;;;;;14.53;54.67;102495.89;1732163;81;21070;-54
2021/11/12 06:56:47;;;;;;;7.28;2.40;;;;;;;14.60;54.40;102491.03;1723114;81;21023;-55
2021/11/12 06:59:14;;;;;;;1.92;1.60;;;;;;;14.68;54.26;102493.12;1735053;81;21539;-52
2021/11/12 07:01:42;;;;;;;2.45;1.60;;;;;;;14.75;53.99;102487.81;1734937;81;21522;-58
2021/11/12 07:04:08;;;;;;;2.20;1.60;;;;;;;14.81;53.55;102485.12;1732114;81;21495;-53
2021/11/12 07:06:36;;;;;;;3.67;1.77;;;;;;;14.86;53.32;102483.33;1733328;81;21046;-56
2021/11/12 07:09:06;;;;;;;3.77;1.95;;;;;;;14.90;53.20;102486.33;1733347;82;21468;-55
2021/11/12 07:11:34;;;;;;;2.65;1.55;;;;;;;14.93;52.92;102483.22;1735490;82;20984;-54
2021/11/12 07:14:01;;;;;;;1.62;1.52;;;;;;;14.97;52.66;102481.41;1735116;81;20968;-55
2021/11/12 07:16:27;;;;;;;2.00;1.77;;;;;;;14.99;52.47;102480.95;1721099;81;20947;-55
2021/11/12 07:18:55;;;;;;;2.87;2.08;;;;;;;15.00;52.36;102479.61;1733590;81;21507;-55
2021/11/12 07:21:25;;;;;;;2.42;1.55;;;;;;;15.02;52.24;102478.31;1731684;81;21494;-52
2021/11/12 07:23:53;;;;;;;2.15;1.75;;;;;;;15.05;52.10;102482.19;1694312;84;21046;-55
2021/11/12 07:26:19;;;;;;;3.47;1.80;;;;;;;15.09;52.15;102487.37;1694936;84;20987;-54
2021/11/12 07:28:48;;;;;;;8.10;2.17;;;;;;;15.13;52.18;102490.38;1702168;84;21037;-55
2021/11/12 07:31:17;;;;;;;5.47;2.67;;;;;;;15.19;52.06;102484.17;1700514;84;21057;-54
2021/11/12 07:33:45;;;;;;;7.42;2.27;;;;;;;15.26;52.09;102484.53;1698086;84;21002;-52
2021/11/12 07:36:21;;;;;;;2.83;1.65;;;;;;;15.31;51.96;102482.26;1698161;83;21451;-54
2021/11/12 07:38:55;;;;;;;4.42;2.70;;;;;;;15.36;51.74;102469.96;1697572;84;21038;-51
2021/11/12 07:46:43;;;;;;;4.35;2.98;;;;;;;15.50;51.42;102475.50;1679900;84;21027;-55
2021/11/12 07:49:11;;;;;;;6.70;2.60;;;;;;;15.53;51.39;102478.94;1695743;84;21061;-58
2021/11/12 07:51:41;;;;;;;4.10;2.12;;;;;;;15.55;51.18;102474.53;1692818;84;21014;-56
2021/11/12 07:54:08;;;;;;;3.15;2.55;;;;;;;15.57;51.08;102475.38;1697948;84;21562;-55
2021/11/12 07:56:34;;;;;;;4.17;2.27;;;;;;;15.62;50.98;102474.84;1695703;84;21042;-56
2021/11/12 07:59:03;;;;;;;4.42;2.52;;;;;;;15.65;50.93;102474.81;1692139;84;21007;-56
2021/11/12 08:01:30;;;;;;;3.50;1.98;;;;;;;15.69;50.91;102469.05;1700395;84;21007;-53
2021/11/12 08:04:00;;;;;;;3.42;2.22;;;;;;;15.73;50.77;102470.74;1699477;84;21029;-55
2021/11/12 08:06:27;;;;;;;4.17;2.17;;;;;;;15.75;50.63;102469.83;1694957;84;21089;-56
2021/11/12 08:09:03;;;;;;;3.67;1.77;;;;;;;15.77;50.66;102469.36;1703092;84;21061;-55
2021/11/12 08:14:10;;;;;;;4.08;1.80;;;;;;;15.80;50.55;102461.45;1737090;81;21058;-55
2021/11/12 08:16:53;;;;;;;1.75;1.65;;;;;;;15.83;50.50;102464.02;1736197;81;21066;-55
2021/11/12 08:19:16;;;;;;;6.33;2.83;;;;;;;15.85;50.50;102456.98;1734838;82;21038;-55
2021/11/12 08:21:51;;;;;;;2.80;2.02;;;;;;;15.90;50.46;102456.47;1734824;82;21460;-52
2021/11/12 08:24:18;;;;;;;5.08;1.98;;;;;;;15.96;50.44;102448.48;1733528;81;20995;-57
2021/11/12 08:26:55;;;;;;;2.60;1.92;;;;;;;16.01;50.15;102451.04;1731789;81;21003;-53
2021/11/12 08:32:14;;;;;;;6.03;4.30;;;;;;;16.08;49.88;102448.70;1733294;81;21089;-57
2021/11/12 08:34:57;;;;;;;3.67;2.00;;;;;;;16.11;49.93;102446.92;1731996;81;20975;-54
2021/11/12 08:42:17;;;;;;;2.65;2.05;;;;;;;16.19;49.73;102440.20;1733351;81;20985;-58
2021/11/12 08:44:46;;;;;;;4.97;2.20;;;;;;;16.24;49.77;102437.90;1732776;81;21031;-53
2021/11/12 08:49:38;;;;;;;2.72;1.40;;;;;;;16.36;49.74;102435.52;1731803;81;21019;-53
2021/11/12 08:52:07;;;;;;;2.83;2.47;;;;;;;16.42;49.39;102439.77;1733409;81;20975;-53
2021/11/12 08:54:38;;;;;;;2.95;1.45;;;;;;;16.46;49.24;102436.19;1733373;81;21506;-53
2021/11/12 08:57:09;;;;;;;3.52;1.87;;;;;;;16.50;49.10;102435.27;1733721;81;21050;-57
2021/11/12 08:59:35;;;;;;;3.40;1.82;;;;;;;16.53;49.01;102424.67;1731740;81;21014;-53
2021/11/12 09:02:02;;;;;;;3.35;1.50;;;;;;;16.57;49.03;102432.95;1692786;84;21002;-57
2021/11/12 09:04:28;;;;;;;3.45;1.57;;;;;;;16.60;48.69;102428.48;1699323;84;21089;-54
2021/11/12 09:06:55;;;;;;;1.72;1.42;;;;;;;16.62;48.62;102421.88;1699135;84;21042;-53
2021/11/12 09:09:21;;;;;;;5.70;1.72;;;;;;;16.63;48.41;102413.95;1699021;84;21021;-57
2021/11/12 09:11:48;;;;;;;2.42;1.47;;;;;;;16.64;48.35;102414.83;1700359;83;21014;-53
2021/11/12 09:14:18;;;;;;;5.25;1.37;;;;;;;16.66;48.32;102416.53;1700687;84;21533;-57
2021/11/12 09:16:45;;;;;;;1.85;1.50;;;;;;;16.70;48.39;102412.07;1700406;84;21003;-53
2021/11/12 09:19:13;;;;;;;1.92;1.67;;;;;;;16.75;48.25;102406.28;1698841;84;21514;-58
2021/11/12 09:21:41;;;;;;;2.08;1.50;;;;;;;16.78;48.18;102407.52;1697803;83;21002;-53
2021/11/12 09:24:08;;;;;;;2.80;1.55;;;;;;;16.81;48.19;102400.45;1697720;83;21506;-56
2021/11/12 09:26:36;;;;;;;2.98;1.67;;;;;;;16.86;48.04;102392.44;1697845;84;21506;-57
2021/11/12 09:29:06;;;;;;;1.87;1.17;;;;;;;16.89;47.88;102395.89;1697770;84;21057;-56
2021/11/12 09:31:33;;;;;;;3.62;1.50;;;;;;;16.93;47.92;102390.11;1690520;83;21097;-55
2021/11/12 09:34:01;;;;;;;5.70;1.25;;;;;;;16.95;47.79;102390.49;1665167;84;21144;-56
2021/11/12 09:36:27;;;;;;;3.08;1.80;;;;;;;16.95;47.98;102396.20;1671234;84;21046;-57
2021/11/12 09:38:54;;;;;;;3.10;1.22;;;;;;;16.97;48.12;102393.95;1669443;84;21082;-52
2021/11/12 09:41:20;;;;;;;2.60;1.20;;;;;;;17.00;48.10;102385.14;1669652;84;21078;-58
2021/11/12 09:43:48;;;;;;;1.98;1.17;;;;;;;17.03;48.02;102382.42;1670330;85;21027;-53
2021/11/12 09:46:17;;;;;;;2.90;1.40;;;;;;;17.05;47.75;102380.62;1659108;84;21534;-53
2021/11/12 09:48:45;;;;;;;4.58;1.47;;;;;;;17.05;47.62;102375.36;1670403;84;21102;-57
2021/11/12 09:51:12;;;;;;;4.67;1.40;;;;;;;17.07;47.63;102376.19;1667676;85;21546;-56
2021/11/12 09:53:40;;;;;;;2.05;1.45;;;;;;;17.09;47.65;102369.13;1668288;84;21102;-56
2021/11/12 09:56:08;;;;;;;4.00;2.58;;;;;;;17.10;47.63;102360.36;1660549;84;21042;-55
2021/11/12 09:58:37;;;;;;;2.85;1.42;;;;;;;17.12;48.23;102363.81;1671110;84;21507;-55
2021/11/12 10:01:06;;;;;;;3.22;1.57;;;;;;;17.14;48.89;102360.70;1673891;83;21136;-55
2021/11/12 10:03:34;;;;;;;3.02;1.30;;;;;;;17.12;49.16;102353.30;1667098;85;21102;-58
2021/11/12 10:06:24;;;;;;;3.85;1.42;;;;;;;17.12;49.50;102362.50;1735962;80;21011;-52
2021/11/12 10:08:52;;;;;;;2.72;1.50;;;;;;;17.10;49.64;102349.84;1735107;80;21553;-57
2021/11/12 10:11:31;;;;;;;5.12;2.08;;;;;;;17.09;49.78;102347.65;1735218;80;21546;-57
2021/11/12 10:14:03;;;;;;;2.45;1.25;;;;;;;17.12;49.28;102353.30;1693029;83;21523;-56
2021/11/12 10:16:37;;;;;;;2.25;1.57;;;;;;;17.15;48.74;102350.58;1680644;85;21024;-53
2021/11/12 10:19:15;;;;;;;4.10;1.32;;;;;;;17.19;48.80;102343.02;1688159;83;21059;-56
2021/11/12 10:21:49;;;;;;;2.50;1.30;;;;;;;17.23;49.27;102339.89;1688161;83;21532;-56
2021/11/12 10:24:30;;;;;;;2.35;1.52;;;;;;;17.23;49.59;102338.09;1686923;83;21517;-52
2021/11/12 10:27:00;;;;;;;2.50;1.25;;;;;;;17.24;49.57;102345.55;1630349;88;21054;-51
2021/11/12 10:29:33;;;;;;;2.60;1.40;;;;;;;17.21;49.73;102337.27;1539035;91;21061;-55
2021/11/12 10:32:05;;;;;;;2.62;1.40;;;;;;;17.20;49.84;102336.88;1537467;93;21142;-53
2021/11/12 10:34:36;;;;;;;4.35;1.22;;;;;;;17.19;49.89;102333.81;1503916;95;21188;-55
2021/11/12 10:37:07;;;;;;;2.55;1.20;;;;;;;17.20;49.76;102329.42;1503825;95;21582;-56
2021/11/12 10:39:39;;;;;;;2.95;1.35;;;;;;;17.19;49.88;102324.61;1503911;95;21074;-53
2021/11/12 10:42:17;;;;;;;1.42;1.27;;;;;;;17.22;49.92;102327.18;1451312;99;21083;-56
2021/11/12 10:44:49;;;;;;;2.12;1.15;;;;;;;17.24;49.76;102333.27;1402449;101;21613;-56
2021/11/12 10:47:18;;;;;;;4.10;1.27;;;;;;;17.23;49.78;102326.27;1415212;101;21121;-53
2021/11/12 10:49:51;;;;;;;5.15;1.85;;;;;;;17.21;49.97;102329.38;1415106;101;21118;-53
2021/11/12 10:52:21;;;;;;;4.70;1.77;;;;;;;17.22;49.97;102325.87;1376893;104;21680;-58
2021/11/12 10:55:14;;;;;;;2.65;1.47;;;;;;;17.23;50.06;102323.62;1377154;104;21711;-52
2021/11/12 10:57:52;;;;;;;1.32;1.00;;;;;;;17.20;50.08;102318.46;1382419;103;21124;-53
2021/11/12 11:00:24;;;;;;;5.00;1.60;;;;;;;17.19;49.89;102315.40;1373577;104;21169;-56
2021/11/12 11:03:00;;;;;;;3.47;1.40;;;;;;;17.17;50.15;102312.39;1365395;105;21169;-58
2021/11/12 11:05:32;;;;;;;5.03;1.40;;;;;;;17.16;50.23;102312.86;1365384;104;21217;-53
2021/11/12 11:08:06;;;;;;;2.20;1.37;;;;;;;17.16;50.56;102312.86;1364945;105;21152;-55
2021/11/12 11:10:39;;;;;;;1.35;1.10;;;;;;;17.15;50.47;102304.98;1360414;105;21129;-57
2021/11/12 11:13:09;;;;;;;4.72;1.50;;;;;;;17.16;50.66;102306.29;1366121;105;21682;-53
2021/11/12 11:15:49;;;;;;;2.95;1.42;;;;;;;17.18;50.71;102305.80;1366462;105;21148;-59
2021/11/12 11:18:21;;;;;;;5.67;1.82;;;;;;;17.20;50.30;102302.67;1326740;108;21144;-55
2021/11/12 11:21:15;;;;;;;2.70;1.45;;;;;;;17.23;50.26;102294.70;1319419;108;21195;-55
2021/11/12 11:23:53;;;;;;;3.22;1.50;;;;;;;17.23;50.26;102294.70;1345355;104;21110;-53
2021/11/12 11:26:23;;;;;;;2.15;1.52;;;;;;;17.25;50.33;102291.57;1370880;103;21131;-56
2021/11/12 11:28:53;;;;;;;3.85;1.52;;;;;;;17.27;50.36;102289.77;1375680;103;21173;-56
2021/11/12 11:31:20;;;;;;;4.45;2.08;;;;;;;17.28;50.32;102291.95;1380071;103;21158;-56
2021/11/12 11:33:50;;;;;;;1.50;1.35;;;;;;;17.29;50.34;102294.53;1379973;103;21152;-57
2021/11/12 11:36:19;;;;;;;2.70;1.20;;;;;;;17.30;50.31;102294.97;1379994;103;21155;-56
2021/11/12 11:38:49;;;;;;;4.05;1.32;;;;;;;17.30;50.24;102288.83;1444162;96;21202;-55
2021/11/12 11:41:17;;;;;;;4.95;1.52;;;;;;;17.28;50.26;102282.75;1485267;94;21589;-57
2021/11/12 11:43:44;;;;;;;4.80;1.55;;;;;;;17.28;50.26;102280.98;1479880;96;21644;-59
2021/11/12 11:46:17;;;;;;;2.67;1.30;;;;;;;17.31;50.38;102276.11;1502169;94;21640;-55
2021/11/12 11:48:44;;;;;;;4.12;1.70;;;;;;;17.32;50.17;102278.69;1491825;93;21579;-56
2021/11/12 11:51:19;;;;;;;2.02;1.47;;;;;;;17.33;50.01;102271.19;1516979;94;21165;-56
2021/11/12 11:53:48;;;;;;;2.47;1.27;;;;;;;17.34;50.28;102272.06;1466574;97;21067;-55
2021/11/12 11:56:29;;;;;;;2.95;1.45;;;;;;;17.36;50.27;102269.81;1508950;94;21097;-57
2021/11/12 11:59:01;;;;;;;1.72;1.15;;;;;;;17.37;50.29;102268.89;1506710;94;21581;-57
2021/11/12 12:01:34;;;;;;;3.27;1.62;;;;;;;17.38;50.30;102264.06;1506924;94;21153;-52
2021/11/12 12:04:18;;;;;;;3.85;1.50;;;;;;;17.37;50.23;102270.20;1506304;94;21207;-56
2021/11/12 12:07:14;;;;;;;4.15;1.60;;;;;;;17.37;50.20;102264.95;1500681;94;21125;-56
2021/11/12 12:09:49;;;;;;;3.22;1.20;;;;;;;17.36;50.36;102264.55;1484794;95;21131;-56
2021/11/12 12:12:36;;;;;;;2.98;1.42;;;;;;;17.38;50.13;102258.80;1504955;94;21622;-55
2021/11/12 12:15:12;;;;;;;3.12;1.40;;;;;;;17.39;50.12;102259.67;1548230;90;21098;-56
2021/11/12 12:17:47;;;;;;;2.05;1.57;;;;;;;17.41;50.19;102257.41;1594961;88;21100;-55
2021/11/12 12:20:45;;;;;;;10.15;2.02;;;;;;;17.43;50.30;102259.55;1583790;88;21100;-56
2021/11/12 13:25:47;;;;;;;2.02;1.35;;;;;;;17.15;51.18;102244.05;1670080;84;21053;-55
2021/11/12 13:28:20;;;;;;;2.75;1.37;;;;;;;17.15;51.12;102247.98;1665448;84;21050;-54
2021/11/12 13:30:55;;;;;;;;;;;;;;;17.14;51.18;102250.22;1667122;84;21573;-55
2021/11/12 13:33:42;;;;;;;2.10;1.57;;;;;;;17.13;51.56;102244.53;1670257;84;20117;-52
2021/11/12 13:36:25;;;;;;;2.80;1.40;;;;;;;17.14;51.63;102251.54;1664255;84;21133;-51
2021/11/12 13:39:05;;;;;;;2.12;1.70;;;;;;;17.13;51.70;102255.05;1665145;84;21101;-56
2021/11/12 13:41:41;;;;;;;3.52;1.60;;;;;;;17.12;51.97;102248.09;1670270;84;21101;-55
2021/11/12 13:44:10;;;;;;;4.47;2.15;;;;;;;17.09;52.03;102247.70;1664792;84;21073;-54
2021/11/12 13:46:57;;;;;;;2.55;1.77;;;;;;;17.08;52.14;102252.53;1670082;84;21626;-55
2021/11/12 13:49:37;;;;;;;2.25;2.05;;;;;;;17.06;52.45;102250.87;1670048;84;21007;-55
2021/11/12 13:52:14;;;;;;;6.60;2.20;;;;;;;17.06;52.63;102253.50;1643777;86;21130;-55
2021/11/12 13:54:50;;;;;;;2.75;2.00;;;;;;;17.04;52.48;102250.88;1628134;86;21082;-51
2021/11/12 13:57:25;;;;;;;3.77;1.80;;;;;;;17.03;52.29;102250.93;1640471;87;21163;-50
2021/11/12 14:02:29;;;;;;;3.70;2.08;;;;;;;17.02;52.69;102246.59;1625692;88;21079;-50
2021/11/12 14:05:10;;;;;;;3.80;2.15;;;;;;;17.01;52.78;102246.16;1617733;88;21076;-54
2021/11/12 14:07:38;;;;;;;7.08;2.00;;;;;;;17.00;52.69;102239.19;1616346;88;21705;-54
2021/11/12 14:10:14;;;;;;;4.12;1.87;;;;;;;16.97;52.77;102244.51;1615719;88;21551;-55
2021/11/12 14:12:57;;;;;;;3.17;1.98;;;;;;;16.94;53.02;102247.20;1595140;89;21572;-51
2021/11/12 14:18:35;;;;;;;3.55;2.10;;;;;;;16.86;53.25;102247.84;1602309;88;21544;-52
2021/11/12 14:27:14;;;;;;;2.77;1.98;;;;;;;16.78;53.43;102260.30;1601482;89;21596;-55
2021/11/12 14:35:07;;;;;;;6.55;4.72;;;;;;;16.69;53.79;102259.22;1642757;86;21083;-55
2021/11/12 14:37:55;;;;;;;7.28;4.42;;;;;;;16.66;53.95;102263.22;1642426;87;21024;-60
2021/11/12 14:40:40;;;;;;;7.08;3.92;;;;;;;16.62;54.00;102264.19;1623697;87;21069;-51
2021/11/12 14:43:30;;;;;;;6.80;3.60;;;;;;;16.57;54.14;102251.14;1623984;87;21547;-56
2021/11/12 14:46:34;;;;;;;7.37;4.10;;;;;;;16.55;54.23;102260.83;1625208;88;20998;-55
2021/11/12 14:52:10;;;;;;;8.73;5.05;;;;;;;16.50;54.55;102264.47;1524812;93;21099;-54
2021/11/12 14:54:50;;;;;;;8.43;4.42;;;;;;;16.46;54.84;102262.78;1525765;93;21476;-55
2021/11/12 15:00:06;;;;;;;5.78;4.50;;;;;;;16.40;55.16;102264.23;1399162;101;21163;-54
2021/11/12 15:02:30;;;;;;;5.03;3.27;;;;;;;16.36;55.30;102266.50;1393853;102;21204;-54
2021/11/12 15:04:57;;;;;;;5.00;3.55;;;;;;;16.33;55.37;102265.24;1396801;101;21979;-56
2021/11/12 15:07:28;;;;;;;4.58;3.47;;;;;;;16.32;55.46;102270.09;1397374;101;21103;-51
2021/11/12 15:09:54;;;;;;;6.40;3.65;;;;;;;16.30;55.46;102272.30;1409392;100;21199;-57
2021/11/12 15:12:22;;;;;;;5.40;3.72;;;;;;;16.29;55.50;102269.70;1473362;96;21070;-55
2021/11/12 15:14:54;;;;;;;13.32;7.60;;;;;;;16.26;55.61;102269.31;1472322;96;21104;-55
2021/11/12 15:17:17;;;;;;;11.97;9.30;;;;;;;16.26;55.53;102273.70;1467700;96;21553;-54
2021/11/12 15:19:46;;;;;;;12.85;10.72;;;;;;;16.24;55.60;102275.05;1469007;96;21643;-55
2021/11/12 15:30:16;;;;;;;8.43;5.90;;;;;;;16.15;55.71;102275.27;1457442;96;21085;-56
2021/11/12 15:32:39;;;;;;;7.55;4.70;;;;;;;16.14;55.69;102279.21;1475947;96;21597;-57
2021/11/12 15:35:11;;;;;;;4.80;4.03;;;;;;;16.12;55.76;102282.31;1475389;96;21584;-56
2021/11/12 15:47:55;;;;;;;11.88;7.75;;;;;;;16.02;55.79;102293.47;1436691;99;21109;-56
2021/11/12 16:14:13;;;;;;;137.03;83.85;;;;;;;15.74;56.10;102305.39;1450142;98;21157;-55
2021/11/12 16:27:01;;;;;;;19.70;14.53;;;;;;;15.61;56.11;102314.37;1553301;92;21071;-57
2021/11/12 16:29:36;;;;;;;12.88;9.15;;;;;;;15.57;56.15;102312.70;1557640;88;21577;-54
2021/11/12 16:32:02;;;;;;;9.55;8.53;;;;;;;15.55;56.17;102318.86;1602922;88;21570;-56
2021/11/12 16:34:31;;;;;;;10.45;7.72;;;;;;;15.52;56.19;102319.77;1598709;87;21122;-56
2021/11/12 16:37:02;;;;;;;10.05;8.03;;;;;;;15.49;56.19;102330.33;1600565;87;21053;-56
2021/11/12 16:39:39;;;;;;;8.95;7.87;;;;;;;15.46;56.22;102331.24;1602762;87;21047;-55
2021/11/12 16:42:20;;;;;;;12.23;8.18;;;;;;;15.44;56.26;102332.16;1597294;87;21117;-56
2021/11/12 17:05:25;;;;;;;9.53;7.60;;;;;;;15.21;56.75;102334.24;1733988;81;21499;-57
2021/11/12 17:13:01;;;;;;;12.18;8.88;;;;;;;15.15;56.80;102340.89;1732472;81;21031;-57
2021/11/12 17:15:29;;;;;;;12.28;10.10;;;;;;;15.14;56.86;102345.73;1729765;81;21000;-56
2021/11/12 17:18:13;;;;;;;14.00;10.95;;;;;;;15.12;56.96;102348.83;1729385;81;21491;-57
2021/11/12 17:47:18;;;;;;;15.80;10.32;;;;;;;14.90;57.69;102339.09;1685687;85;21058;-54
2021/11/12 18:03:34;;;;;;;12.98;9.98;;;;;;;14.84;57.91;102344.41;1735898;80;21090;-57
2021/11/12 18:06:09;;;;;;;11.25;8.90;;;;;;;14.83;57.94;102340.52;1704032;83;21061;-56
2021/11/12 18:11:32;;;;;;;11.75;9.80;;;;;;;14.81;57.95;102343.16;1699418;84;21644;-53
2021/11/12 21:48:18;;;;;;;24.55;20.40;;;;;;;12.92;57.94;102382.89;1617383;88;21044;-56
2021/11/12 21:50:44;;;;;;;22.50;18.73;;;;;;;12.93;57.56;102388.56;1634569;86;21055;-61
2021/11/12 21:53:11;;;;;;;20.17;17.67;;;;;;;12.93;57.29;102391.17;1675493;84;21002;-56
2021/11/12 21:55:39;;;;;;;19.67;15.05;;;;;;;12.94;56.95;102385.52;1675727;84;21050;-58
2021/11/12 21:58:05;;;;;;;15.78;14.07;;;;;;;12.92;56.31;102381.59;1675990;85;21109;-57
2021/11/12 22:00:34;;;;;;;15.93;12.68;;;;;;;12.89;56.03;102384.23;1675873;84;20974;-56
2021/11/12 22:03:01;;;;;;;13.70;12.28;;;;;;;12.87;55.72;102387.30;1675616;84;21117;-58
2021/11/12 22:05:27;;;;;;;16.20;12.68;;;;;;;12.82;55.52;102386.44;1730716;81;21011;-59
2021/11/12 22:07:54;;;;;;;17.02;12.90;;;;;;;12.79;55.29;102386.47;1732893;81;20987;-56